MUC weather

Munich International Airport
Munich, Bavaria, Germany

Public forecast

Using degrees Celsius for public forecast. Weather courtesy of forecast.io.

METAR (pilot weather report)

Retrieved 2017/03/24 21:20 UTC (35 minutes ago):

EDDM 242120Z 09010KT 9999 BKN018 07/04 Q1028 NOSIG

TAF (pilot weather forecast)

Retrieved 2017/03/24 18:27 UTC (3 hours ago):

TAF EDDM 241700Z 2418/2524 07007KT 9999 SCT020 TEMPO 2502/2508 4000 BR BKN008 BECMG 2507/2509 08012KT BECMG 2516/2518 07007KT